sensor_id;sensor_type;location;lat;lon;timestamp;P1;durP1;ratioP1;P2;durP2;ratioP2
18338;SDS011;9295;44.484;11.240;2022-08-24T00:01:59;3.77;;;1.50;;
18338;SDS011;9295;44.484;11.240;2022-08-24T00:04:30;4.70;;;1.60;;
18338;SDS011;9295;44.484;11.240;2022-08-24T00:06:59;8.13;;;1.50;;
18338;SDS011;9295;44.484;11.240;2022-08-24T00:09:29;6.17;;;1.97;;
18338;SDS011;9295;44.484;11.240;2022-08-24T00:11:58;3.43;;;1.77;;
18338;SDS011;9295;44.484;11.240;2022-08-24T00:14:30;2.70;;;1.40;;
18338;SDS011;9295;44.484;11.240;2022-08-24T00:16:59;3.93;;;1.73;;
18338;SDS011;9295;44.484;11.240;2022-08-24T00:19:31;3.23;;;1.70;;
18338;SDS011;9295;44.484;11.240;2022-08-24T00:22:01;3.87;;;1.77;;
18338;SDS011;9295;44.484;11.240;2022-08-24T00:24:32;2.93;;;1.40;;
18338;SDS011;9295;44.484;11.240;2022-08-24T00:27:00;3.43;;;1.70;;
18338;SDS011;9295;44.484;11.240;2022-08-24T00:29:30;2.57;;;1.47;;
18338;SDS011;9295;44.484;11.240;2022-08-24T00:31:59;3.90;;;1.70;;
18338;SDS011;9295;44.484;11.240;2022-08-24T00:34:28;3.20;;;1.60;;
18338;SDS011;9295;44.484;11.240;2022-08-24T00:36:57;4.30;;;1.60;;
18338;SDS011;9295;44.484;11.240;2022-08-24T00:39:25;8.60;;;2.00;;
18338;SDS011;9295;44.484;11.240;2022-08-24T00:41:57;2.40;;;1.47;;
18338;SDS011;9295;44.484;11.240;2022-08-24T00:44:26;3.40;;;1.50;;
18338;SDS011;9295;44.484;11.240;2022-08-24T00:46:58;2.77;;;1.60;;
18338;SDS011;9295;44.484;11.240;2022-08-24T00:49:32;4.37;;;1.50;;
18338;SDS011;9295;44.484;11.240;2022-08-24T00:52:07;4.27;;;1.57;;
18338;SDS011;9295;44.484;11.240;2022-08-24T00:54:39;2.30;;;1.50;;
18338;SDS011;9295;44.484;11.240;2022-08-24T00:57:12;6.73;;;1.70;;
18338;SDS011;9295;44.484;11.240;2022-08-24T00:59:45;2.57;;;1.60;;
18338;SDS011;9295;44.484;11.240;2022-08-24T01:02:19;1.90;;;1.30;;
18338;SDS011;9295;44.484;11.240;2022-08-24T01:04:52;2.63;;;1.37;;
18338;SDS011;9295;44.484;11.240;2022-08-24T01:07:22;2.50;;;1.40;;
18338;SDS011;9295;44.484;11.240;2022-08-24T01:09:52;2.50;;;1.53;;
18338;SDS011;9295;44.484;11.240;2022-08-24T01:12:26;2.47;;;1.50;;
18338;SDS011;9295;44.484;11.240;2022-08-24T01:14:56;1.90;;;1.23;;
18338;SDS011;9295;44.484;11.240;2022-08-24T01:17:28;3.10;;;1.37;;
18338;SDS011;9295;44.484;11.240;2022-08-24T01:20:15;2.47;;;1.63;;
18338;SDS011;9295;44.484;11.240;2022-08-24T01:22:49;3.10;;;1.40;;
18338;SDS011;9295;44.484;11.240;2022-08-24T01:25:29;10.80;;;1.70;;
18338;SDS011;9295;44.484;11.240;2022-08-24T01:28:00;3.30;;;1.30;;
18338;SDS011;9295;44.484;11.240;2022-08-24T01:30:33;4.63;;;1.60;;
18338;SDS011;9295;44.484;11.240;2022-08-24T01:33:03;2.37;;;1.50;;
18338;SDS011;9295;44.484;11.240;2022-08-24T01:35:34;3.83;;;1.30;;
18338;SDS011;9295;44.484;11.240;2022-08-24T01:38:07;2.97;;;1.50;;
18338;SDS011;9295;44.484;11.240;2022-08-24T01:40:41;3.40;;;1.57;;
18338;SDS011;9295;44.484;11.240;2022-08-24T01:43:13;2.17;;;1.40;;
18338;SDS011;9295;44.484;11.240;2022-08-24T01:45:42;6.67;;;1.70;;
18338;SDS011;9295;44.484;11.240;2022-08-24T01:48:10;5.10;;;1.30;;
18338;SDS011;9295;44.484;11.240;2022-08-24T01:50:49;3.23;;;1.83;;
18338;SDS011;9295;44.484;11.240;2022-08-24T01:53:20;7.30;;;1.60;;
18338;SDS011;9295;44.484;11.240;2022-08-24T01:55:51;3.37;;;1.57;;
18338;SDS011;9295;44.484;11.240;2022-08-24T01:58:20;4.70;;;1.57;;
18338;SDS011;9295;44.484;11.240;2022-08-24T02:00:50;4.00;;;1.60;;
18338;SDS011;9295;44.484;11.240;2022-08-24T02:03:18;4.93;;;1.50;;
18338;SDS011;9295;44.484;11.240;2022-08-24T02:05:56;6.83;;;1.47;;
18338;SDS011;9295;44.484;11.240;2022-08-24T02:08:29;6.60;;;1.50;;
18338;SDS011;9295;44.484;11.240;2022-08-24T02:11:03;4.80;;;1.40;;
18338;SDS011;9295;44.484;11.240;2022-08-24T02:13:33;6.93;;;1.40;;
18338;SDS011;9295;44.484;11.240;2022-08-24T02:16:02;2.10;;;1.33;;
18338;SDS011;9295;44.484;11.240;2022-08-24T02:18:33;3.03;;;1.50;;
18338;SDS011;9295;44.484;11.240;2022-08-24T02:21:04;2.27;;;1.33;;
18338;SDS011;9295;44.484;11.240;2022-08-24T02:23:34;2.20;;;1.40;;
18338;SDS011;9295;44.484;11.240;2022-08-24T02:26:05;3.80;;;1.40;;
18338;SDS011;9295;44.484;11.240;2022-08-24T02:28:35;2.60;;;1.23;;
18338;SDS011;9295;44.484;11.240;2022-08-24T02:31:05;6.67;;;1.80;;
18338;SDS011;9295;44.484;11.240;2022-08-24T02:33:35;2.00;;;1.20;;
18338;SDS011;9295;44.484;11.240;2022-08-24T02:36:04;3.20;;;1.40;;
18338;SDS011;9295;44.484;11.240;2022-08-24T02:38:55;3.60;;;1.50;;
18338;SDS011;9295;44.484;11.240;2022-08-24T02:41:28;2.37;;;1.43;;
18338;SDS011;9295;44.484;11.240;2022-08-24T02:43:57;2.50;;;1.50;;
18338;SDS011;9295;44.484;11.240;2022-08-24T02:46:27;2.53;;;1.37;;
18338;SDS011;9295;44.484;11.240;2022-08-24T02:48:58;4.53;;;1.70;;
18338;SDS011;9295;44.484;11.240;2022-08-24T02:51:41;2.87;;;1.30;;
18338;SDS011;9295;44.484;11.240;2022-08-24T02:54:19;2.47;;;1.47;;
18338;SDS011;9295;44.484;11.240;2022-08-24T02:56:52;5.30;;;1.90;;
18338;SDS011;9295;44.484;11.240;2022-08-24T02:59:21;3.40;;;1.40;;
18338;SDS011;9295;44.484;11.240;2022-08-24T03:01:50;2.27;;;1.53;;
18338;SDS011;9295;44.484;11.240;2022-08-24T03:04:21;6.00;;;1.63;;
18338;SDS011;9295;44.484;11.240;2022-08-24T03:06:49;2.67;;;1.30;;
18338;SDS011;9295;44.484;11.240;2022-08-24T03:09:18;5.33;;;1.50;;
18338;SDS011;9295;44.484;11.240;2022-08-24T03:11:49;5.00;;;1.50;;
18338;SDS011;9295;44.484;11.240;2022-08-24T03:14:22;2.93;;;1.50;;
18338;SDS011;9295;44.484;11.240;2022-08-24T03:16:52;3.40;;;1.40;;
18338;SDS011;9295;44.484;11.240;2022-08-24T03:19:21;2.60;;;1.30;;
18338;SDS011;9295;44.484;11.240;2022-08-24T03:21:50;2.03;;;1.27;;
18338;SDS011;9295;44.484;11.240;2022-08-24T03:24:19;2.80;;;1.50;;
18338;SDS011;9295;44.484;11.240;2022-08-24T03:26:48;2.20;;;1.40;;
18338;SDS011;9295;44.484;11.240;2022-08-24T03:29:18;3.13;;;1.57;;
18338;SDS011;9295;44.484;11.240;2022-08-24T03:31:50;2.40;;;1.43;;
18338;SDS011;9295;44.484;11.240;2022-08-24T03:34:18;6.23;;;1.30;;
18338;SDS011;9295;44.484;11.240;2022-08-24T03:36:47;3.43;;;1.23;;
18338;SDS011;9295;44.484;11.240;2022-08-24T03:39:15;3.63;;;1.97;;
18338;SDS011;9295;44.484;11.240;2022-08-24T03:41:51;3.03;;;1.53;;
18338;SDS011;9295;44.484;11.240;2022-08-24T03:44:21;1.90;;;1.30;;
18338;SDS011;9295;44.484;11.240;2022-08-24T03:46:52;2.30;;;1.37;;
18338;SDS011;9295;44.484;11.240;2022-08-24T03:49:23;2.37;;;1.20;;
18338;SDS011;9295;44.484;11.240;2022-08-24T03:51:51;3.10;;;1.30;;
18338;SDS011;9295;44.484;11.240;2022-08-24T03:54:21;2.50;;;1.50;;
18338;SDS011;9295;44.484;11.240;2022-08-24T03:56:52;2.10;;;1.40;;
18338;SDS011;9295;44.484;11.240;2022-08-24T03:59:22;5.93;;;1.50;;
18338;SDS011;9295;44.484;11.240;2022-08-24T04:01:53;11.20;;;1.60;;
18338;SDS011;9295;44.484;11.240;2022-08-24T04:04:24;2.50;;;1.40;;
18338;SDS011;9295;44.484;11.240;2022-08-24T04:06:54;2.30;;;1.40;;
18338;SDS011;9295;44.484;11.240;2022-08-24T04:09:24;1.87;;;1.20;;
18338;SDS011;9295;44.484;11.240;2022-08-24T04:11:55;1.80;;;1.23;;
18338;SDS011;9295;44.484;11.240;2022-08-24T04:14:26;2.23;;;1.30;;
18338;SDS011;9295;44.484;11.240;2022-08-24T04:17:00;2.33;;;1.40;;
18338;SDS011;9295;44.484;11.240;2022-08-24T04:19:34;2.57;;;1.60;;
18338;SDS011;9295;44.484;11.240;2022-08-24T04:22:02;2.63;;;1.40;;
18338;SDS011;9295;44.484;11.240;2022-08-24T04:24:31;1.90;;;1.30;;
18338;SDS011;9295;44.484;11.240;2022-08-24T04:27:02;3.10;;;1.70;;
18338;SDS011;9295;44.484;11.240;2022-08-24T04:29:34;3.73;;;1.40;;
18338;SDS011;9295;44.484;11.240;2022-08-24T04:32:03;3.00;;;1.50;;
18338;SDS011;9295;44.484;11.240;2022-08-24T04:34:33;3.87;;;1.40;;
18338;SDS011;9295;44.484;11.240;2022-08-24T04:37:01;3.30;;;1.50;;
18338;SDS011;9295;44.484;11.240;2022-08-24T04:39:37;3.10;;;1.57;;
18338;SDS011;9295;44.484;11.240;2022-08-24T04:42:23;3.50;;;1.37;;
18338;SDS011;9295;44.484;11.240;2022-08-24T04:44:54;3.90;;;1.60;;
18338;SDS011;9295;44.484;11.240;2022-08-24T04:47:23;3.13;;;1.60;;
18338;SDS011;9295;44.484;11.240;2022-08-24T04:49:51;2.80;;;1.60;;
18338;SDS011;9295;44.484;11.240;2022-08-24T04:52:20;3.70;;;1.70;;
18338;SDS011;9295;44.484;11.240;2022-08-24T04:54:51;4.00;;;1.50;;
18338;SDS011;9295;44.484;11.240;2022-08-24T04:57:22;6.07;;;1.80;;
18338;SDS011;9295;44.484;11.240;2022-08-24T04:59:55;6.63;;;1.43;;
18338;SDS011;9295;44.484;11.240;2022-08-24T05:02:24;2.40;;;1.63;;
18338;SDS011;9295;44.484;11.240;2022-08-24T05:04:55;6.43;;;1.70;;
18338;SDS011;9295;44.484;11.240;2022-08-24T05:07:24;4.30;;;1.40;;
18338;SDS011;9295;44.484;11.240;2022-08-24T05:09:54;2.90;;;1.63;;
18338;SDS011;9295;44.484;11.240;2022-08-24T05:12:24;3.13;;;1.60;;
18338;SDS011;9295;44.484;11.240;2022-08-24T05:15:04;2.30;;;1.33;;
18338;SDS011;9295;44.484;11.240;2022-08-24T05:17:39;7.83;;;1.90;;
18338;SDS011;9295;44.484;11.240;2022-08-24T05:20:16;5.27;;;1.80;;
18338;SDS011;9295;44.484;11.240;2022-08-24T05:22:45;4.30;;;1.60;;
18338;SDS011;9295;44.484;11.240;2022-08-24T05:25:19;3.67;;;1.60;;
18338;SDS011;9295;44.484;11.240;2022-08-24T05:27:48;2.70;;;1.60;;
18338;SDS011;9295;44.484;11.240;2022-08-24T05:30:19;2.40;;;1.73;;
18338;SDS011;9295;44.484;11.240;2022-08-24T05:32:47;4.00;;;1.60;;
18338;SDS011;9295;44.484;11.240;2022-08-24T05:35:17;4.80;;;1.57;;
18338;SDS011;9295;44.484;11.240;2022-08-24T05:37:46;2.43;;;1.60;;
18338;SDS011;9295;44.484;11.240;2022-08-24T05:40:17;3.00;;;1.40;;
18338;SDS011;9295;44.484;11.240;2022-08-24T05:42:53;5.10;;;1.50;;
18338;SDS011;9295;44.484;11.240;2022-08-24T05:45:23;5.40;;;2.33;;
18338;SDS011;9295;44.484;11.240;2022-08-24T05:47:53;4.83;;;1.63;;
18338;SDS011;9295;44.484;11.240;2022-08-24T05:50:39;5.30;;;3.03;;
18338;SDS011;9295;44.484;11.240;2022-08-24T05:53:08;3.47;;;1.40;;
18338;SDS011;9295;44.484;11.240;2022-08-24T05:55:38;3.40;;;1.60;;
18338;SDS011;9295;44.484;11.240;2022-08-24T05:58:06;6.50;;;1.50;;
18338;SDS011;9295;44.484;11.240;2022-08-24T06:00:45;5.23;;;1.60;;
18338;SDS011;9295;44.484;11.240;2022-08-24T06:03:16;5.43;;;2.10;;
18338;SDS011;9295;44.484;11.240;2022-08-24T06:05:48;4.47;;;2.40;;
18338;SDS011;9295;44.484;11.240;2022-08-24T06:08:18;5.77;;;2.27;;
18338;SDS011;9295;44.484;11.240;2022-08-24T06:10:49;2.23;;;1.23;;
18338;SDS011;9295;44.484;11.240;2022-08-24T06:13:17;3.80;;;2.00;;
18338;SDS011;9295;44.484;11.240;2022-08-24T06:16:01;4.43;;;1.80;;
18338;SDS011;9295;44.484;11.240;2022-08-24T06:18:46;3.77;;;1.80;;
18338;SDS011;9295;44.484;11.240;2022-08-24T06:21:17;3.10;;;1.70;;
18338;SDS011;9295;44.484;11.240;2022-08-24T06:23:50;4.33;;;1.40;;
18338;SDS011;9295;44.484;11.240;2022-08-24T06:26:20;4.50;;;2.03;;
18338;SDS011;9295;44.484;11.240;2022-08-24T06:29:07;7.33;;;3.73;;
18338;SDS011;9295;44.484;11.240;2022-08-24T06:31:44;4.07;;;1.50;;
18338;SDS011;9295;44.484;11.240;2022-08-24T06:34:21;4.10;;;1.37;;
18338;SDS011;9295;44.484;11.240;2022-08-24T06:36:52;3.63;;;1.73;;
18338;SDS011;9295;44.484;11.240;2022-08-24T06:39:24;3.47;;;1.40;;
18338;SDS011;9295;44.484;11.240;2022-08-24T06:41:55;4.37;;;1.90;;
18338;SDS011;9295;44.484;11.240;2022-08-24T06:44:31;2.50;;;1.60;;
18338;SDS011;9295;44.484;11.240;2022-08-24T06:47:15;5.83;;;1.47;;
18338;SDS011;9295;44.484;11.240;2022-08-24T06:49:43;4.23;;;1.47;;
18338;SDS011;9295;44.484;11.240;2022-08-24T06:52:12;3.87;;;1.40;;
18338;SDS011;9295;44.484;11.240;2022-08-24T06:54:41;4.17;;;1.53;;
18338;SDS011;9295;44.484;11.240;2022-08-24T06:57:10;4.47;;;1.77;;
18338;SDS011;9295;44.484;11.240;2022-08-24T06:59:38;3.90;;;1.60;;
18338;SDS011;9295;44.484;11.240;2022-08-24T07:02:09;3.13;;;1.60;;
18338;SDS011;9295;44.484;11.240;2022-08-24T07:04:46;8.40;;;3.37;;
18338;SDS011;9295;44.484;11.240;2022-08-24T07:07:33;5.27;;;1.70;;
18338;SDS011;9295;44.484;11.240;2022-08-24T07:10:03;5.87;;;2.47;;
18338;SDS011;9295;44.484;11.240;2022-08-24T07:12:34;5.40;;;1.60;;
18338;SDS011;9295;44.484;11.240;2022-08-24T07:15:03;3.50;;;1.40;;
18338;SDS011;9295;44.484;11.240;2022-08-24T07:17:45;3.00;;;1.37;;
18338;SDS011;9295;44.484;11.240;2022-08-24T07:20:15;4.33;;;1.40;;
18338;SDS011;9295;44.484;11.240;2022-08-24T07:23:07;4.43;;;2.17;;
18338;SDS011;9295;44.484;11.240;2022-08-24T07:25:38;4.37;;;1.70;;
18338;SDS011;9295;44.484;11.240;2022-08-24T07:28:15;2.38;;;1.15;;
18338;SDS011;9295;44.484;11.240;2022-08-24T07:31:01;2.22;;;1.25;;
18338;SDS011;9295;44.484;11.240;2022-08-24T07:33:35;3.75;;;1.38;;
18338;SDS011;9295;44.484;11.240;2022-08-24T07:36:06;3.20;;;1.30;;
18338;SDS011;9295;44.484;11.240;2022-08-24T07:38:34;3.42;;;1.17;;
18338;SDS011;9295;44.484;11.240;2022-08-24T07:41:03;3.58;;;1.50;;
18338;SDS011;9295;44.484;11.240;2022-08-24T07:43:52;3.97;;;1.42;;
18338;SDS011;9295;44.484;11.240;2022-08-24T07:46:22;4.20;;;1.70;;
18338;SDS011;9295;44.484;11.240;2022-08-24T07:48:52;6.05;;;1.40;;
18338;SDS011;9295;44.484;11.240;2022-08-24T07:51:40;4.07;;;1.65;;
18338;SDS011;9295;44.484;11.240;2022-08-24T07:54:13;5.00;;;1.88;;
18338;SDS011;9295;44.484;11.240;2022-08-24T07:56:42;4.90;;;1.65;;
18338;SDS011;9295;44.484;11.240;2022-08-24T07:59:11;3.92;;;1.30;;
18338;SDS011;9295;44.484;11.240;2022-08-24T08:01:40;3.13;;;1.50;;
18338;SDS011;9295;44.484;11.240;2022-08-24T08:04:10;4.82;;;1.70;;
18338;SDS011;9295;44.484;11.240;2022-08-24T08:06:41;2.78;;;1.58;;
18338;SDS011;9295;44.484;11.240;2022-08-24T08:09:10;3.83;;;1.63;;
18338;SDS011;9295;44.484;11.240;2022-08-24T08:11:39;7.32;;;2.28;;
18338;SDS011;9295;44.484;11.240;2022-08-24T08:14:07;2.58;;;1.38;;
18338;SDS011;9295;44.484;11.240;2022-08-24T08:16:36;2.80;;;1.40;;
18338;SDS011;9295;44.484;11.240;2022-08-24T08:19:05;9.43;;;3.35;;
18338;SDS011;9295;44.484;11.240;2022-08-24T08:21:43;14.63;;;6.10;;
18338;SDS011;9295;44.484;11.240;2022-08-24T08:24:35;13.13;;;4.70;;
18338;SDS011;9295;44.484;11.240;2022-08-24T08:27:06;8.57;;;3.53;;
18338;SDS011;9295;44.484;11.240;2022-08-24T08:29:37;8.73;;;3.27;;
18338;SDS011;9295;44.484;11.240;2022-08-24T08:32:07;7.90;;;3.60;;
18338;SDS011;9295;44.484;11.240;2022-08-24T08:34:37;11.53;;;4.17;;
18338;SDS011;9295;44.484;11.240;2022-08-24T08:37:08;10.50;;;3.80;;
18338;SDS011;9295;44.484;11.240;2022-08-24T08:39:37;10.00;;;4.00;;
18338;SDS011;9295;44.484;11.240;2022-08-24T08:42:19;8.37;;;2.67;;
18338;SDS011;9295;44.484;11.240;2022-08-24T08:45:09;8.90;;;2.40;;
18338;SDS011;9295;44.484;11.240;2022-08-24T08:54:01;6.53;;;1.90;;
18338;SDS011;9295;44.484;11.240;2022-08-24T08:56:41;5.93;;;2.23;;
18338;SDS011;9295;44.484;11.240;2022-08-24T08:59:31;6.87;;;1.70;;
18338;SDS011;9295;44.484;11.240;2022-08-24T09:02:15;9.23;;;2.33;;
18338;SDS011;9295;44.484;11.240;2022-08-24T09:08:18;4.50;;;2.10;;
18338;SDS011;9295;44.484;11.240;2022-08-24T09:11:00;3.70;;;1.73;;
18338;SDS011;9295;44.484;11.240;2022-08-24T09:13:38;3.67;;;1.57;;
18338;SDS011;9295;44.484;11.240;2022-08-24T09:16:39;4.57;;;1.83;;
18338;SDS011;9295;44.484;11.240;2022-08-24T09:19:32;3.83;;;1.70;;
18338;SDS011;9295;44.484;11.240;2022-08-24T09:22:14;6.87;;;2.83;;
18338;SDS011;9295;44.484;11.240;2022-08-24T09:27:48;3.40;;;1.60;;
18338;SDS011;9295;44.484;11.240;2022-08-24T09:30:34;7.57;;;2.03;;
18338;SDS011;9295;44.484;11.240;2022-08-24T09:33:19;5.63;;;1.63;;
18338;SDS011;9295;44.484;11.240;2022-08-24T09:35:59;4.17;;;1.50;;
18338;SDS011;9295;44.484;11.240;2022-08-24T09:38:44;3.57;;;1.40;;
18338;SDS011;9295;44.484;11.240;2022-08-24T09:41:37;3.40;;;1.73;;
18338;SDS011;9295;44.484;11.240;2022-08-24T09:44:45;3.60;;;1.60;;
18338;SDS011;9295;44.484;11.240;2022-08-24T09:47:45;6.77;;;1.70;;
18338;SDS011;9295;44.484;11.240;2022-08-24T09:50:39;5.60;;;1.40;;
18338;SDS011;9295;44.484;11.240;2022-08-24T09:53:42;5.47;;;1.50;;
18338;SDS011;9295;44.484;11.240;2022-08-24T09:56:27;4.10;;;1.50;;
18338;SDS011;9295;44.484;11.240;2022-08-24T09:59:13;2.70;;;1.30;;
18338;SDS011;9295;44.484;11.240;2022-08-24T10:01:59;2.80;;;1.87;;
18338;SDS011;9295;44.484;11.240;2022-08-24T10:04:44;4.80;;;1.37;;
18338;SDS011;9295;44.484;11.240;2022-08-24T10:07:25;5.30;;;1.47;;
18338;SDS011;9295;44.484;11.240;2022-08-24T10:10:12;3.80;;;1.40;;
18338;SDS011;9295;44.484;11.240;2022-08-24T10:12:54;5.80;;;1.87;;
18338;SDS011;9295;44.484;11.240;2022-08-24T10:15:30;3.53;;;1.50;;
18338;SDS011;9295;44.484;11.240;2022-08-24T10:18:24;3.00;;;1.47;;
18338;SDS011;9295;44.484;11.240;2022-08-24T10:21:08;2.60;;;1.70;;
18338;SDS011;9295;44.484;11.240;2022-08-24T10:23:49;3.17;;;1.63;;
18338;SDS011;9295;44.484;11.240;2022-08-24T10:26:30;4.10;;;1.47;;
18338;SDS011;9295;44.484;11.240;2022-08-24T10:32:04;3.50;;;1.70;;
18338;SDS011;9295;44.484;11.240;2022-08-24T10:34:48;2.97;;;1.60;;
18338;SDS011;9295;44.484;11.240;2022-08-24T10:40:43;3.10;;;1.80;;
18338;SDS011;9295;44.484;11.240;2022-08-24T10:43:35;3.00;;;1.50;;
18338;SDS011;9295;44.484;11.240;2022-08-24T10:46:35;4.37;;;1.70;;
18338;SDS011;9295;44.484;11.240;2022-08-24T10:49:21;4.93;;;1.60;;
18338;SDS011;9295;44.484;11.240;2022-08-24T10:55:29;4.83;;;1.80;;
18338;SDS011;9295;44.484;11.240;2022-08-24T11:01:00;2.60;;;1.50;;
18338;SDS011;9295;44.484;11.240;2022-08-24T11:03:48;4.63;;;1.70;;
18338;SDS011;9295;44.484;11.240;2022-08-24T11:06:20;4.07;;;1.73;;
18338;SDS011;9295;44.484;11.240;2022-08-24T11:08:52;5.87;;;1.90;;
18338;SDS011;9295;44.484;11.240;2022-08-24T11:11:25;4.63;;;1.70;;
18338;SDS011;9295;44.484;11.240;2022-08-24T11:13:56;4.20;;;1.93;;
18338;SDS011;9295;44.484;11.240;2022-08-24T11:16:27;3.37;;;1.50;;
18338;SDS011;9295;44.484;11.240;2022-08-24T11:18:59;6.20;;;1.73;;
18338;SDS011;9295;44.484;11.240;2022-08-24T11:21:36;3.90;;;1.70;;
18338;SDS011;9295;44.484;11.240;2022-08-24T11:24:08;4.23;;;1.80;;
18338;SDS011;9295;44.484;11.240;2022-08-24T11:26:49;2.50;;;1.50;;
18338;SDS011;9295;44.484;11.240;2022-08-24T11:29:21;3.30;;;1.67;;
18338;SDS011;9295;44.484;11.240;2022-08-24T11:31:56;6.27;;;1.90;;
18338;SDS011;9295;44.484;11.240;2022-08-24T11:34:30;8.20;;;1.70;;
18338;SDS011;9295;44.484;11.240;2022-08-24T11:37:02;3.70;;;1.60;;
18338;SDS011;9295;44.484;11.240;2022-08-24T11:39:32;3.30;;;1.50;;
18338;SDS011;9295;44.484;11.240;2022-08-24T11:42:08;4.83;;;1.67;;
18338;SDS011;9295;44.484;11.240;2022-08-24T11:44:44;2.47;;;1.43;;
18338;SDS011;9295;44.484;11.240;2022-08-24T11:47:29;3.27;;;1.53;;
18338;SDS011;9295;44.484;11.240;2022-08-24T11:50:17;7.30;;;1.43;;
18338;SDS011;9295;44.484;11.240;2022-08-24T11:52:55;5.57;;;1.50;;
18338;SDS011;9295;44.484;11.240;2022-08-24T11:55:40;6.43;;;1.57;;
18338;SDS011;9295;44.484;11.240;2022-08-24T11:58:26;4.13;;;1.77;;
18338;SDS011;9295;44.484;11.240;2022-08-24T12:01:07;2.90;;;1.43;;
18338;SDS011;9295;44.484;11.240;2022-08-24T12:03:45;4.90;;;1.80;;
18338;SDS011;9295;44.484;11.240;2022-08-24T12:06:35;2.83;;;1.30;;
18338;SDS011;9295;44.484;11.240;2022-08-24T12:09:35;5.67;;;1.63;;
18338;SDS011;9295;44.484;11.240;2022-08-24T12:12:12;4.00;;;1.60;;
18338;SDS011;9295;44.484;11.240;2022-08-24T12:14:51;4.60;;;1.70;;
18338;SDS011;9295;44.484;11.240;2022-08-24T12:17:27;5.10;;;1.67;;
18338;SDS011;9295;44.484;11.240;2022-08-24T12:20:03;3.03;;;1.60;;
18338;SDS011;9295;44.484;11.240;2022-08-24T12:22:48;3.97;;;1.40;;
18338;SDS011;9295;44.484;11.240;2022-08-24T12:25:19;2.90;;;1.33;;
18338;SDS011;9295;44.484;11.240;2022-08-24T12:28:06;3.43;;;1.80;;
18338;SDS011;9295;44.484;11.240;2022-08-24T12:30:38;2.47;;;1.40;;
18338;SDS011;9295;44.484;11.240;2022-08-24T12:33:07;3.10;;;1.50;;
18338;SDS011;9295;44.484;11.240;2022-08-24T12:35:40;2.30;;;1.30;;
18338;SDS011;9295;44.484;11.240;2022-08-24T12:38:13;3.53;;;1.23;;
18338;SDS011;9295;44.484;11.240;2022-08-24T12:40:48;2.10;;;1.30;;
18338;SDS011;9295;44.484;11.240;2022-08-24T12:43:23;4.27;;;1.30;;
18338;SDS011;9295;44.484;11.240;2022-08-24T12:45:59;2.93;;;1.30;;
18338;SDS011;9295;44.484;11.240;2022-08-24T12:48:30;3.97;;;1.70;;
18338;SDS011;9295;44.484;11.240;2022-08-24T12:51:08;5.00;;;1.53;;
18338;SDS011;9295;44.484;11.240;2022-08-24T12:53:51;5.40;;;1.77;;
18338;SDS011;9295;44.484;11.240;2022-08-24T12:56:45;8.83;;;1.20;;
18338;SDS011;9295;44.484;11.240;2022-08-24T12:59:30;3.60;;;1.40;;
18338;SDS011;9295;44.484;11.240;2022-08-24T13:04:55;2.43;;;1.40;;
18338;SDS011;9295;44.484;11.240;2022-08-24T13:07:28;4.40;;;1.57;;
18338;SDS011;9295;44.484;11.240;2022-08-24T13:10:06;2.67;;;1.27;;
18338;SDS011;9295;44.484;11.240;2022-08-24T13:12:46;7.53;;;1.40;;
18338;SDS011;9295;44.484;11.240;2022-08-24T13:21:14;3.60;;;1.30;;
18338;SDS011;9295;44.484;11.240;2022-08-24T13:33:32;3.20;;;1.53;;
18338;SDS011;9295;44.484;11.240;2022-08-24T13:36:32;11.47;;;1.87;;
18338;SDS011;9295;44.484;11.240;2022-08-24T13:39:22;4.43;;;1.40;;
18338;SDS011;9295;44.484;11.240;2022-08-24T13:42:15;2.70;;;1.60;;
18338;SDS011;9295;44.484;11.240;2022-08-24T13:44:58;3.30;;;1.40;;
18338;SDS011;9295;44.484;11.240;2022-08-24T13:48:01;4.73;;;1.50;;
18338;SDS011;9295;44.484;11.240;2022-08-24T13:50:58;5.00;;;1.53;;
18338;SDS011;9295;44.484;11.240;2022-08-24T13:53:55;2.50;;;1.50;;
18338;SDS011;9295;44.484;11.240;2022-08-24T13:56:48;5.10;;;1.40;;
18338;SDS011;9295;44.484;11.240;2022-08-24T13:59:35;7.73;;;1.67;;
18338;SDS011;9295;44.484;11.240;2022-08-24T14:02:23;4.47;;;1.30;;
18338;SDS011;9295;44.484;11.240;2022-08-24T14:05:02;2.27;;;1.40;;
18338;SDS011;9295;44.484;11.240;2022-08-24T14:07:47;3.43;;;1.40;;
18338;SDS011;9295;44.484;11.240;2022-08-24T14:10:30;6.93;;;1.60;;
18338;SDS011;9295;44.484;11.240;2022-08-24T14:13:13;3.53;;;1.33;;
18338;SDS011;9295;44.484;11.240;2022-08-24T14:15:55;8.27;;;1.43;;
18338;SDS011;9295;44.484;11.240;2022-08-24T14:19:03;2.37;;;1.40;;
18338;SDS011;9295;44.484;11.240;2022-08-24T14:21:41;6.73;;;2.53;;
18338;SDS011;9295;44.484;11.240;2022-08-24T14:24:21;11.90;;;1.60;;
18338;SDS011;9295;44.484;11.240;2022-08-24T14:27:08;2.90;;;1.50;;
18338;SDS011;9295;44.484;11.240;2022-08-24T14:33:06;3.50;;;1.47;;
18338;SDS011;9295;44.484;11.240;2022-08-24T14:35:46;3.20;;;1.50;;
18338;SDS011;9295;44.484;11.240;2022-08-24T14:38:42;2.13;;;1.40;;
18338;SDS011;9295;44.484;11.240;2022-08-24T14:41:28;2.70;;;1.30;;
18338;SDS011;9295;44.484;11.240;2022-08-24T14:47:12;2.83;;;1.40;;
18338;SDS011;9295;44.484;11.240;2022-08-24T14:49:54;9.20;;;1.60;;
18338;SDS011;9295;44.484;11.240;2022-08-24T14:52:44;6.23;;;1.30;;
18338;SDS011;9295;44.484;11.240;2022-08-24T14:55:27;3.87;;;1.50;;
18338;SDS011;9295;44.484;11.240;2022-08-24T14:58:00;3.17;;;1.67;;
18338;SDS011;9295;44.484;11.240;2022-08-24T15:03:49;3.23;;;1.50;;
18338;SDS011;9295;44.484;11.240;2022-08-24T15:06:30;2.50;;;1.50;;
18338;SDS011;9295;44.484;11.240;2022-08-24T15:09:18;3.80;;;1.63;;
18338;SDS011;9295;44.484;11.240;2022-08-24T15:11:53;4.97;;;1.40;;
18338;SDS011;9295;44.484;11.240;2022-08-24T15:14:37;3.17;;;1.70;;
18338;SDS011;9295;44.484;11.240;2022-08-24T15:17:11;2.83;;;1.67;;
18338;SDS011;9295;44.484;11.240;2022-08-24T15:19:46;7.07;;;1.93;;
18338;SDS011;9295;44.484;11.240;2022-08-24T15:22:25;3.80;;;1.40;;
18338;SDS011;9295;44.484;11.240;2022-08-24T15:25:10;5.90;;;1.43;;
18338;SDS011;9295;44.484;11.240;2022-08-24T15:27:47;2.67;;;1.47;;
18338;SDS011;9295;44.484;11.240;2022-08-24T15:30:21;4.03;;;1.60;;
18338;SDS011;9295;44.484;11.240;2022-08-24T15:32:53;2.47;;;1.50;;
18338;SDS011;9295;44.484;11.240;2022-08-24T15:35:32;5.83;;;1.47;;
18338;SDS011;9295;44.484;11.240;2022-08-24T15:38:17;2.47;;;1.60;;
18338;SDS011;9295;44.484;11.240;2022-08-24T15:40:50;2.60;;;1.60;;
18338;SDS011;9295;44.484;11.240;2022-08-24T15:43:29;5.30;;;1.63;;
18338;SDS011;9295;44.484;11.240;2022-08-24T15:45:59;2.67;;;1.67;;
18338;SDS011;9295;44.484;11.240;2022-08-24T15:48:28;3.43;;;1.80;;
18338;SDS011;9295;44.484;11.240;2022-08-24T15:50:58;4.07;;;1.70;;
18338;SDS011;9295;44.484;11.240;2022-08-24T15:53:32;8.33;;;1.60;;
18338;SDS011;9295;44.484;11.240;2022-08-24T15:59:05;2.70;;;1.50;;
18338;SDS011;9295;44.484;11.240;2022-08-24T16:01:36;5.50;;;1.80;;
18338;SDS011;9295;44.484;11.240;2022-08-24T16:04:37;11.40;;;2.30;;
18338;SDS011;9295;44.484;11.240;2022-08-24T16:07:13;4.47;;;1.93;;
18338;SDS011;9295;44.484;11.240;2022-08-24T16:09:52;5.93;;;1.73;;
18338;SDS011;9295;44.484;11.240;2022-08-24T16:12:29;11.57;;;1.83;;
18338;SDS011;9295;44.484;11.240;2022-08-24T16:15:07;4.80;;;1.77;;
18338;SDS011;9295;44.484;11.240;2022-08-24T16:17:40;5.40;;;1.97;;
18338;SDS011;9295;44.484;11.240;2022-08-24T16:20:27;2.70;;;1.50;;
18338;SDS011;9295;44.484;11.240;2022-08-24T16:23:00;2.37;;;1.50;;
18338;SDS011;9295;44.484;11.240;2022-08-24T16:25:33;4.57;;;1.50;;
18338;SDS011;9295;44.484;11.240;2022-08-24T16:28:09;4.30;;;1.60;;
18338;SDS011;9295;44.484;11.240;2022-08-24T16:30:41;3.83;;;1.63;;
18338;SDS011;9295;44.484;11.240;2022-08-24T16:36:11;3.73;;;1.90;;
18338;SDS011;9295;44.484;11.240;2022-08-24T16:38:44;2.70;;;1.70;;
18338;SDS011;9295;44.484;11.240;2022-08-24T16:41:15;3.90;;;2.23;;